Jork Reliance — V2CL2 — position and weather

sailwx.info

Track history (hours):
 
Tides and Currents Weather Stations Pressure Air Temp Water Temp Dewpoint Dewpoint Depression Visibility Wind Speed Wind Dir Waves Ship Positions

Jork Reliance

Last reported at 2014-Sep-02 01:33 UTC. Time now 2014-Sep-02 02:01 UTC.
Position N 51°01' E 001°45'.

Length 141 m; draft 6.1 m.

Type: Ship (hazmat cat A). MMSI: 305033000.

Date/timePositionNaut miles runAvg speedWind from/ knotsBaromVisibWave heightAir tempDewpointWater temp
2014-Sep-02 01:33N 51°01' E 001°45'1010.2
2014-Sep-02 00:33N 50°56' E 001°31'1210.2
2014-Sep-01 23:26N 50°46' E 001°23'910.0
2014-Sep-01 22:32N 50°39' E 001°14'1010.5
2014-Sep-01 21:33N 50°32' E 001°02'1210.4
2014-Sep-01 20:25N 50°27' E 000°45'910.6
2014-Sep-01 19:33N 50°25' E 000°31'18412.0
2014-Sep-01 04:11N 49°23' W 003°59'9112.0
2014-Aug-31 20:33N 48°26' W 005°47'2813.0
2014-Aug-31 18:22N 47°60' W 005°30'3712.8
2014-Aug-31 15:28N 47°32' W 004°53'5413.0
2014-Aug-31 11:21N 46°55' W 003°56'3913.6
2014-Aug-31 08:31N 46°29' W 003°15'1313.6
2014-Aug-31 07:33N 46°20' W 003°01'  
2014-Aug-28 19:24N 49°41' W 000°39'1315.3
2014-Aug-28 18:34N 49°35' W 000°21'1514.7
2014-Aug-28 17:33N 49°30' E 000°00'5 5.4
2014-Aug-28 16:33N 49°28' E 000°08'0 0.0
2014-Aug-28 15:30N 49°28' E 000°08'0 0.0
2014-Aug-28 14:33N 49°28' E 000°08'0 0.0
2014-Aug-28 13:33N 49°28' E 000°08'2 1.6
2014-Aug-28 12:33N 49°28' E 000°06'1312.9
2014-Aug-28 11:33N 49°35' W 000°11'5512.4
2014-Aug-28 07:07N 50°29' E 000°07'713.3
2014-Aug-28 06:33N 50°32' E 000°17'1413.7
2014-Aug-28 05:33N 50°38' E 000°37'1413.9
2014-Aug-28 04:33N 50°46' E 000°55'1513.9
2014-Aug-28 03:30N 50°56' E 001°13'1314.0
2014-Aug-28 02:34N 51°05' E 001°28'1312.7
2014-Aug-28 01:33N 51°12' E 001°43'1313.1
2014-Aug-28 00:33N 51°23' E 001°56'1010.1
2014-Aug-27 23:33N 51°22' E 002°12'1212.5
2014-Aug-27 22:33N 51°23' E 002°32'1514.6
2014-Aug-27 21:33N 51°25' E 002°55'1716.6
2014-Aug-27 20:33N 51°25' E 003°22'1313.0
2014-Aug-27 19:34N 51°23' E 003°43'1212.3
2014-Aug-27 18:34N 51°23' E 004°02'9 9.4
2014-Aug-27 17:34N 51°21' E 004°17'0 0.0
2014-Aug-27 16:33N 51°21' E 004°17'2 2.0
2014-Aug-27 15:30N 51°19' E 004°20'0 0.0
2014-Aug-27 14:33N 51°20' E 004°20'0 0.0
2014-Aug-27 13:33N 51°19' E 004°20'0 0.0
2014-Aug-27 12:33N 51°19' E 004°20'0 0.0
2014-Aug-27 11:33N 51°19' E 004°20'0 0.0
2014-Aug-27 10:33N 51°19' E 004°20'0 0.0
2014-Aug-27 09:33N 51°19' E 004°20'0 0.0
2014-Aug-27 08:33N 51°19' E 004°20'0 0.0
2014-Aug-27 07:33N 51°19' E 004°20'0 0.0
2014-Aug-27 06:33N 51°19' E 004°20'0 0.0
2014-Aug-27 05:30N 51°19' E 004°20'0 0.0
2014-Aug-27 04:33N 51°19' E 004°20'0 0.0
2014-Aug-27 03:30N 51°19' E 004°20'0 0.0
2014-Aug-27 02:33N 51°19' E 004°20'0 0.0
2014-Aug-27 01:34N 51°19' E 004°20'2 2.0
2014-Aug-27 00:33N 51°21' E 004°17'0 0.0
2014-Aug-26 23:33N 51°21' E 004°17'2 2.3
2014-Aug-26 22:34N 51°21' E 004°14'8 7.8
2014-Aug-26 21:34N 51°24' E 004°02'9 9.4
2014-Aug-26 20:33N 51°21' E 003°48'1110.6
2014-Aug-26 19:33N 51°25' E 003°32'1212.5
2014-Aug-26 18:33N 51°24' E 003°12'1312.7
2014-Aug-26 17:33N 51°22' E 002°52'10 9.5
2014-Aug-26 16:33N 51°22' E 002°37'1310.4
2014-Aug-26 15:19N 51°17' E 002°17'1216.2
2014-Aug-26 14:34N 51°11' E 002°01'1110.8
2014-Aug-26 13:33N 51°03' E 001°50'1311.2
2014-Aug-26 12:25N 51°02' E 002°10'1 0.6
2014-Aug-26 10:30N 51°00' E 002°11'0 0.0
2014-Aug-26 09:33N 51°01' E 002°11'0 0.0
2014-Aug-26 08:30N 51°00' E 002°11'0 0.0
2014-Aug-26 07:30N 51°00' E 002°11'0 0.0
2014-Aug-26 06:30N 51°00' E 002°11'0 0.0
2014-Aug-26 05:24N 51°01' E 002°11'0 0.0
2014-Aug-26 04:18N 51°00' E 002°11'0 0.0
2014-Aug-26 03:33N 51°00' E 002°11'1 1.1
2014-Aug-26 02:33N 51°02' E 002°10'1313.2
2014-Aug-26 01:34N 51°02' E 001°49'1110.6
2014-Aug-26 00:33N 50°58' E 001°34'1111.3
2014-Aug-25 23:33N 50°48' E 001°25'1310.0
2014-Aug-25 22:16N 50°38' E 001°12'811.3
2014-Aug-25 21:33N 50°32' E 001°03'1211.7
2014-Aug-25 20:33N 50°28' E 000°46'1211.9
2014-Aug-25 19:33N 50°24' E 000°28'332 7.1
2014-Aug-23 20:31N 44°54' W 000°32'0 0.0
2014-Aug-23 19:31N 44°54' W 000°32'  
Track history (hours):
 
Tides and Currents Weather Stations Pressure Air Temp Water Temp Dewpoint Dewpoint Depression Visibility Wind Speed Wind Dir Waves Ship Positions

Jork Reliance

Last reported at 2014-Sep-02 01:33 UTC. Time now 2014-Sep-02 02:01 UTC.
Position N 51°01' E 001°45'.

Length 141 m; draft 6.1 m.

Type: Ship (hazmat cat A). MMSI: 305033000.

Date/timePositionNaut miles runAvg speedWind from/ knotsBaromVisibWave heightAir tempDewpointWater temp
2014-Sep-02 01:33N 51°01' E 001°45'1010.2
2014-Sep-02 00:33N 50°56' E 001°31'1210.2
2014-Sep-01 23:26N 50°46' E 001°23'910.0
2014-Sep-01 22:32N 50°39' E 001°14'1010.5
2014-Sep-01 21:33N 50°32' E 001°02'1210.4
2014-Sep-01 20:25N 50°27' E 000°45'910.6
2014-Sep-01 19:33N 50°25' E 000°31'18412.0
2014-Sep-01 04:11N 49°23' W 003°59'9112.0
2014-Aug-31 20:33N 48°26' W 005°47'2813.0
2014-Aug-31 18:22N 47°60' W 005°30'3712.8
2014-Aug-31 15:28N 47°32' W 004°53'5413.0
2014-Aug-31 11:21N 46°55' W 003°56'3913.6
2014-Aug-31 08:31N 46°29' W 003°15'1313.6
2014-Aug-31 07:33N 46°20' W 003°01'  
2014-Aug-28 19:24N 49°41' W 000°39'1315.3
2014-Aug-28 18:34N 49°35' W 000°21'1514.7
2014-Aug-28 17:33N 49°30' E 000°00'5 5.4
2014-Aug-28 16:33N 49°28' E 000°08'0 0.0
2014-Aug-28 15:30N 49°28' E 000°08'0 0.0
2014-Aug-28 14:33N 49°28' E 000°08'0 0.0
2014-Aug-28 13:33N 49°28' E 000°08'2 1.6
2014-Aug-28 12:33N 49°28' E 000°06'1312.9
2014-Aug-28 11:33N 49°35' W 000°11'5512.4
2014-Aug-28 07:07N 50°29' E 000°07'713.3
2014-Aug-28 06:33N 50°32' E 000°17'1413.7
2014-Aug-28 05:33N 50°38' E 000°37'1413.9
2014-Aug-28 04:33N 50°46' E 000°55'1513.9
2014-Aug-28 03:30N 50°56' E 001°13'1314.0
2014-Aug-28 02:34N 51°05' E 001°28'1312.7
2014-Aug-28 01:33N 51°12' E 001°43'1313.1
2014-Aug-28 00:33N 51°23' E 001°56'1010.1
2014-Aug-27 23:33N 51°22' E 002°12'1212.5
2014-Aug-27 22:33N 51°23' E 002°32'1514.6
2014-Aug-27 21:33N 51°25' E 002°55'1716.6
2014-Aug-27 20:33N 51°25' E 003°22'1313.0
2014-Aug-27 19:34N 51°23' E 003°43'1212.3
2014-Aug-27 18:34N 51°23' E 004°02'9 9.4
2014-Aug-27 17:34N 51°21' E 004°17'0 0.0
2014-Aug-27 16:33N 51°21' E 004°17'2 2.0
2014-Aug-27 15:30N 51°19' E 004°20'0 0.0
2014-Aug-27 14:33N 51°20' E 004°20'0 0.0
2014-Aug-27 13:33N 51°19' E 004°20'0 0.0
2014-Aug-27 12:33N 51°19' E 004°20'0 0.0
2014-Aug-27 11:33N 51°19' E 004°20'0 0.0
2014-Aug-27 10:33N 51°19' E 004°20'0 0.0
2014-Aug-27 09:33N 51°19' E 004°20'0 0.0
2014-Aug-27 08:33N 51°19' E 004°20'0 0.0
2014-Aug-27 07:33N 51°19' E 004°20'0 0.0
2014-Aug-27 06:33N 51°19' E 004°20'0 0.0
2014-Aug-27 05:30N 51°19' E 004°20'0 0.0
2014-Aug-27 04:33N 51°19' E 004°20'0 0.0
2014-Aug-27 03:30N 51°19' E 004°20'0 0.0
2014-Aug-27 02:33N 51°19' E 004°20'0 0.0
2014-Aug-27 01:34N 51°19' E 004°20'2 2.0
2014-Aug-27 00:33N 51°21' E 004°17'0 0.0
2014-Aug-26 23:33N 51°21' E 004°17'2 2.3
2014-Aug-26 22:34N 51°21' E 004°14'8 7.8
2014-Aug-26 21:34N 51°24' E 004°02'9 9.4
2014-Aug-26 20:33N 51°21' E 003°48'1110.6
2014-Aug-26 19:33N 51°25' E 003°32'1212.5
2014-Aug-26 18:33N 51°24' E 003°12'1312.7
2014-Aug-26 17:33N 51°22' E 002°52'10 9.5
2014-Aug-26 16:33N 51°22' E 002°37'1310.4
2014-Aug-26 15:19N 51°17' E 002°17'1216.2
2014-Aug-26 14:34N 51°11' E 002°01'1110.8
2014-Aug-26 13:33N 51°03' E 001°50'1311.2
2014-Aug-26 12:25N 51°02' E 002°10'1 0.6
2014-Aug-26 10:30N 51°00' E 002°11'0 0.0
2014-Aug-26 09:33N 51°01' E 002°11'0 0.0
2014-Aug-26 08:30N 51°00' E 002°11'0 0.0
2014-Aug-26 07:30N 51°00' E 002°11'0 0.0
2014-Aug-26 06:30N 51°00' E 002°11'0 0.0
2014-Aug-26 05:24N 51°01' E 002°11'0 0.0
2014-Aug-26 04:18N 51°00' E 002°11'0 0.0
2014-Aug-26 03:33N 51°00' E 002°11'1 1.1
2014-Aug-26 02:33N 51°02' E 002°10'1313.2
2014-Aug-26 01:34N 51°02' E 001°49'1110.6
2014-Aug-26 00:33N 50°58' E 001°34'1111.3
2014-Aug-25 23:33N 50°48' E 001°25'1310.0
2014-Aug-25 22:16N 50°38' E 001°12'811.3
2014-Aug-25 21:33N 50°32' E 001°03'1211.7
2014-Aug-25 20:33N 50°28' E 000°46'1211.9
2014-Aug-25 19:33N 50°24' E 000°28'332 7.1
2014-Aug-23 20:31N 44°54' W 000°32'0 0.0
2014-Aug-23 19:31N 44°54' W 000°32'  

Dump ship's entire track history